This is the latest recevied weather packets stored in our database for station/object SQ9SMC-13. If no packets are shown the sender has not sent any weather packets the latest 10 day(s).
| Time | Temp. | Humidity | Pressure | Rain* | Wind** | Luminosity | Snow |
|---|---|---|---|---|---|---|---|
| 1777483505 | 5.56° C | 46% | 1029.9 hPa | 0 mm | - | 18 W/m² | - |
| 1777478403 | 7.78° C | 41% | 1029.5 hPa | 0 mm | - | 48 W/m² | - |
| 1777477804 | 8.89° C | 38% | 1029.2 hPa | 0 mm | - | 181 W/m² | - |
| 1777468804 | 7.78° C | 40% | 1029.2 hPa | 0 mm | - | 129 W/m² | - |
| 1777468505 | 8.33° C | 39% | 1029 hPa | 0 mm | - | 192 W/m² | - |
| 1777465804 | 8.89° C | 38% | 1029 hPa | 0 mm | - | 658 W/m² | - |
| 1777465202 | 9.44° C | 35% | 1029 hPa | 0 mm | - | 144 W/m² | - |
| 1777462805 | 8.89° C | 35% | 1028.7 hPa | 0 mm | - | 253 W/m² | - |
| 1777462503 | 9.44° C | 33% | 1028.6 hPa | 0 mm | - | 722 W/m² | - |
| 1777462205 | 8.33° C | 34% | 1028.7 hPa | 0 mm | - | 414 W/m² | - |
| 1777461905 | 10° C | 32% | 1028.7 hPa | 0 mm | - | 189 W/m² | - |
| 1777461603 | 8.89° C | 34% | 1028.6 hPa | 0 mm | - | 704 W/m² | - |
| 1777461302 | 8.89° C | 33% | 1028.7 hPa | 0 mm | - | 689 W/m² | - |
| 1777460403 | 10° C | 32% | 1028.9 hPa | 0 mm | - | 661 W/m² | - |
| 1777459205 | 8.33° C | 33% | 1028.9 hPa | 0 mm | - | 644 W/m² | - |
| 1777458902 | 8.33° C | 33% | 1028.9 hPa | 0 mm | - | 642 W/m² | - |
| 1777458003 | 8.33° C | 32% | 1028.9 hPa | 0 mm | - | 638 W/m² | - |
| 1777457704 | 8.89° C | 30% | 1028.8 hPa | 0 mm | - | 637 W/m² | - |
| 1777457403 | 8.89° C | 32% | 1028.9 hPa | 0 mm | - | 634 W/m² | - |
| 1777456814 | 8.89° C | 33% | 1028.4 hPa | 0 mm | - | 627 W/m² | - |
| 1777455603 | 7.78° C | 31% | 1028.7 hPa | 0 mm | - | 612 W/m² | - |
| 1777455304 | 8.89° C | 30% | 1028.9 hPa | 0 mm | - | 606 W/m² | - |
| 1777455002 | 8.33° C | 30% | 1028.7 hPa | 0 mm | - | 602 W/m² | - |
| 1777454703 | 8.33° C | 29% | 1028.8 hPa | 0 mm | - | 595 W/m² | - |
| 1777454404 | 8.89° C | 29% | 1028.8 hPa | 0 mm | - | 591 W/m² | - |
* Rain latest hour (hover to see other rain measurements)
** Current wind speed in m/s (hover to see current wind gust speed)